createdAt,value
2022-12-13T00:00:22.636Z,3.48
2022-12-13T00:03:28.322Z,3.46
2022-12-13T00:06:35.313Z,3.46
2022-12-13T00:09:43.212Z,3.45
2022-12-13T00:12:48.964Z,3.41
2022-12-13T00:16:00.712Z,3.38
2022-12-13T00:19:06.410Z,3.36
2022-12-13T00:22:12.062Z,3.35
2022-12-13T00:25:19.868Z,3.32
2022-12-13T00:28:25.425Z,3.28
2022-12-13T00:34:58.030Z,3.24
2022-12-13T00:38:03.670Z,3.25
2022-12-13T00:41:17.339Z,3.24
2022-12-13T00:44:22.959Z,3.25
2022-12-13T00:47:28.523Z,3.21
2022-12-13T00:50:34.879Z,3.16
2022-12-13T00:53:39.286Z,3.12
2022-12-13T00:56:45.154Z,3.07
2022-12-13T00:59:51.224Z,3.06
2022-12-13T01:02:57.088Z,3.03
2022-12-13T01:06:17.114Z,3.00
2022-12-13T01:09:27.396Z,3.01
2022-12-13T01:12:33.279Z,3.02
2022-12-13T01:15:43.489Z,3.05
2022-12-13T01:18:49.501Z,3.05
2022-12-13T01:21:59.927Z,3.04
2022-12-13T01:25:06.331Z,2.99
2022-12-13T01:28:11.986Z,2.94
2022-12-13T01:31:20.015Z,2.90
2022-12-13T01:34:27.564Z,2.89
2022-12-13T01:37:33.136Z,2.84
2022-12-13T01:40:48.306Z,2.82
2022-12-13T01:43:57.924Z,2.83
2022-12-13T01:47:03.814Z,2.81
2022-12-13T01:50:13.692Z,2.80
2022-12-13T01:53:23.110Z,2.81
2022-12-13T01:56:37.563Z,2.81
2022-12-13T01:59:45.241Z,2.78
2022-12-13T02:02:52.042Z,2.75
2022-12-13T02:06:03.738Z,2.73
2022-12-13T02:09:10.209Z,2.76
2022-12-13T02:12:16.098Z,2.76
2022-12-13T02:15:23.162Z,2.73
2022-12-13T02:18:44.014Z,2.73
2022-12-13T02:22:00.741Z,2.72
2022-12-13T02:25:28.899Z,2.72
2022-12-13T02:28:50.163Z,2.73
2022-12-13T02:32:03.084Z,2.75
2022-12-13T02:35:15.622Z,2.75
2022-12-13T02:38:31.080Z,2.77
2022-12-13T02:41:42.053Z,2.80
2022-12-13T02:44:51.907Z,2.77
2022-12-13T02:48:01.340Z,2.77
2022-12-13T02:51:10.402Z,2.75
2022-12-13T02:54:16.132Z,2.76
2022-12-13T02:57:35.051Z,2.78
2022-12-13T03:00:50.371Z,2.78
2022-12-13T03:04:11.588Z,2.77
2022-12-13T03:07:29.733Z,2.78
2022-12-13T03:10:43.475Z,2.78
2022-12-13T03:13:53.785Z,2.77
2022-12-13T03:17:02.152Z,2.79
2022-12-13T03:20:12.652Z,2.73
2022-12-13T03:23:29.292Z,2.12
2022-12-13T03:26:35.645Z,1.52
2022-12-13T03:29:39.708Z,1.06
2022-12-13T03:32:45.361Z,0.71
2022-12-13T03:35:51.524Z,0.57
2022-12-13T03:38:57.636Z,0.95
2022-12-13T03:42:03.340Z,1.33
2022-12-13T03:45:10.882Z,1.59
2022-12-13T03:48:22.141Z,1.79
2022-12-13T03:51:29.204Z,1.94
2022-12-13T03:54:34.886Z,2.06
2022-12-13T03:57:40.610Z,2.16
2022-12-13T04:00:46.568Z,2.26
2022-12-13T04:03:52.220Z,2.34
2022-12-13T04:06:57.872Z,2.39
2022-12-13T04:10:03.368Z,2.46
2022-12-13T04:13:34.704Z,2.47
2022-12-13T04:16:40.684Z,2.51
2022-12-13T04:19:46.384Z,2.52
2022-12-13T04:22:52.138Z,2.55
2022-12-13T04:25:57.996Z,2.57
2022-12-13T04:46:45.129Z,1.81
2022-12-13T04:49:50.780Z,1.84
2022-12-13T04:52:56.329Z,1.90
2022-12-13T04:56:03.622Z,1.96
2022-12-13T04:59:09.988Z,2.03
2022-12-13T05:02:14.439Z,2.12
2022-12-13T05:05:29.746Z,2.18
2022-12-13T05:08:35.500Z,2.28
2022-12-13T05:11:45.975Z,2.35
2022-12-13T05:14:51.980Z,2.40
2022-12-13T05:17:57.620Z,2.39
2022-12-13T05:21:06.354Z,2.39
2022-12-13T05:24:12.081Z,2.39
2022-12-13T05:27:24.881Z,2.40
2022-12-13T05:30:32.124Z,2.45
2022-12-13T05:33:38.063Z,2.46
2022-12-13T05:36:43.719Z,1.96
2022-12-13T05:39:49.257Z,1.34
2022-12-13T05:43:01.404Z,0.84
2022-12-13T05:46:08.102Z,0.43
2022-12-13T05:49:13.898Z,0.26
2022-12-13T05:52:21.490Z,0.65
2022-12-13T05:55:38.387Z,1.04
2022-12-13T05:58:44.062Z,1.26
2022-12-13T06:01:49.603Z,1.45
2022-12-13T06:04:55.265Z,1.57
2022-12-13T06:08:00.974Z,1.69
2022-12-13T06:11:10.901Z,1.79
2022-12-13T06:14:22.873Z,1.87
2022-12-13T06:17:31.031Z,1.91
2022-12-13T06:20:36.628Z,1.98
2022-12-13T06:23:42.382Z,2.03
2022-12-13T06:26:48.286Z,2.07
2022-12-13T06:29:53.829Z,2.12
2022-12-13T06:32:59.410Z,2.15
2022-12-13T06:36:06.302Z,2.19
2022-12-13T06:39:12.074Z,2.25
2022-12-13T06:42:21.533Z,2.03
2022-12-13T06:45:28.088Z,1.39
2022-12-13T06:48:33.841Z,0.86
2022-12-13T06:51:39.492Z,0.46
2022-12-13T06:54:45.765Z,0.19
2022-12-13T06:57:49.769Z,0.43
2022-12-13T07:01:04.984Z,0.77
2022-12-13T07:04:30.200Z,1.04
2022-12-13T07:07:35.246Z,1.23
2022-12-13T07:10:42.490Z,1.34
2022-12-13T07:13:48.136Z,1.51
2022-12-13T07:16:59.395Z,1.70
2022-12-13T07:20:10.993Z,1.84
2022-12-13T07:23:16.762Z,1.97
2022-12-13T07:26:30.126Z,2.04
2022-12-13T07:29:35.751Z,2.14
2022-12-13T07:32:41.397Z,2.22
2022-12-13T07:35:46.945Z,2.30
2022-12-13T07:39:00.994Z,2.30
2022-12-13T07:42:06.954Z,1.84
2022-12-13T07:45:13.628Z,1.34
2022-12-13T07:48:19.331Z,0.97
2022-12-13T07:51:25.053Z,0.65
2022-12-13T07:54:30.687Z,0.37
2022-12-13T07:57:36.545Z,0.23
2022-12-13T08:00:46.425Z,0.61
2022-12-13T08:03:53.375Z,0.99
2022-12-13T08:06:58.925Z,1.25
2022-12-13T08:10:04.987Z,1.43
2022-12-13T08:13:10.896Z,1.57
2022-12-13T08:16:27.366Z,1.71
2022-12-13T08:19:34.640Z,1.86
2022-12-13T08:22:40.173Z,1.99
2022-12-13T08:25:51.597Z,2.12
2022-12-13T08:28:57.209Z,2.09
2022-12-13T08:32:03.653Z,1.58
2022-12-13T08:35:10.505Z,1.07
2022-12-13T08:38:22.603Z,0.67
2022-12-13T08:41:31.348Z,0.35
2022-12-13T08:44:39.105Z,0.11
2022-12-13T08:47:45.649Z,0.02
2022-12-13T08:50:51.535Z,0.44
2022-12-13T08:54:10.764Z,0.83
2022-12-13T08:57:17.169Z,1.10
2022-12-13T09:00:23.378Z,1.28
2022-12-13T09:03:29.294Z,1.45
2022-12-13T09:06:34.889Z,1.63
2022-12-13T09:09:40.494Z,1.77
2022-12-13T09:12:46.350Z,1.88
2022-12-13T09:15:52.092Z,1.53
2022-12-13T09:18:57.970Z,1.03
2022-12-13T09:22:03.952Z,0.65
2022-12-13T09:25:14.674Z,0.45
2022-12-13T09:28:20.656Z,0.49
2022-12-13T09:31:26.355Z,1.08
2022-12-13T09:34:33.213Z,1.60
2022-12-13T09:37:45.555Z,2.00
2022-12-13T09:40:58.650Z,2.23
2022-12-13T09:44:31.590Z,2.04
2022-12-13T09:47:47.146Z,1.44
2022-12-13T09:51:15.866Z,1.05
2022-12-13T09:54:22.480Z,0.75
2022-12-13T09:57:33.793Z,0.53
2022-12-13T10:00:40.687Z,0.43
2022-12-13T10:03:50.998Z,0.87
2022-12-13T10:06:57.143Z,1.31
2022-12-13T10:10:03.623Z,1.63
2022-12-13T10:13:18.082Z,1.87
2022-12-13T10:16:35.878Z,2.01
2022-12-13T10:19:45.036Z,1.57
2022-12-13T10:23:15.074Z,1.08
2022-12-13T10:26:24.350Z,0.73
2022-12-13T10:29:30.570Z,0.53
2022-12-13T10:32:47.591Z,0.44
2022-12-13T10:36:14.746Z,0.50
2022-12-13T10:39:37.917Z,1.14
2022-12-13T10:42:43.567Z,1.68
2022-12-13T10:46:00.849Z,2.04
2022-12-13T10:49:14.829Z,2.36
2022-12-13T10:52:32.042Z,2.65
2022-12-13T10:55:39.077Z,2.62
2022-12-13T10:58:46.941Z,2.19
2022-12-13T11:01:52.736Z,1.83
2022-12-13T11:04:59.389Z,1.59
2022-12-13T11:08:26.811Z,1.41
2022-12-13T11:11:32.892Z,1.27
2022-12-13T11:14:49.726Z,1.19
2022-12-13T11:17:58.430Z,1.27
2022-12-13T11:21:07.908Z,1.82
2022-12-13T11:24:23.257Z,2.31
2022-12-13T11:27:56.039Z,2.65
2022-12-13T11:31:11.314Z,2.86
2022-12-13T11:34:26.899Z,2.47
2022-12-13T11:37:38.743Z,1.90
2022-12-13T11:40:50.062Z,1.50
2022-12-13T11:43:59.692Z,1.29
2022-12-13T11:47:12.622Z,1.06
2022-12-13T11:50:33.491Z,0.88
2022-12-13T11:53:51.085Z,0.73
2022-12-13T11:57:05.143Z,0.70
2022-12-13T12:00:33.727Z,1.24
2022-12-13T12:03:46.516Z,1.80
2022-12-13T12:07:17.945Z,2.18
2022-12-13T12:10:31.845Z,2.37
2022-12-13T12:13:51.698Z,1.98
2022-12-13T12:16:59.738Z,1.63
2022-12-13T12:20:08.003Z,1.40
2022-12-13T12:23:24.248Z,1.20
2022-12-13T12:26:32.728Z,1.05
2022-12-13T12:29:53.778Z,0.98
2022-12-13T12:33:09.568Z,0.90
2022-12-13T12:36:27.865Z,0.82
2022-12-13T12:40:00.400Z,0.88
2022-12-13T12:43:16.038Z,1.48
2022-12-13T12:47:01.536Z,1.98
2022-12-13T12:50:25.969Z,2.33
2022-12-13T12:53:43.082Z,2.45
2022-12-13T12:56:55.856Z,2.01
2022-12-13T13:00:06.010Z,1.64
2022-12-13T13:03:22.951Z,1.39
2022-12-13T13:06:34.563Z,1.19
2022-12-13T13:09:41.604Z,1.01
2022-12-13T13:12:47.506Z,0.78
2022-12-13T13:15:59.930Z,0.60
2022-12-13T13:19:06.903Z,0.45
2022-12-13T13:22:32.183Z,0.39
2022-12-13T13:25:54.342Z,0.95
2022-12-13T13:29:16.077Z,1.50
2022-12-13T13:32:38.319Z,1.87
2022-12-13T13:35:53.791Z,2.17
2022-12-13T13:39:01.256Z,2.40
2022-12-13T13:42:20.202Z,2.46
2022-12-13T13:45:27.531Z,1.94
2022-12-13T13:48:49.400Z,1.47
2022-12-13T13:52:25.277Z,1.11
2022-12-13T13:55:57.091Z,0.83
2022-12-13T13:59:24.870Z,0.60
2022-12-13T14:03:01.384Z,0.39
2022-12-13T14:06:50.522Z,0.39
2022-12-13T14:10:07.948Z,0.98
2022-12-13T14:13:49.346Z,1.39
2022-12-13T14:17:25.387Z,1.70
2022-12-13T14:20:45.987Z,1.91
2022-12-13T14:24:15.516Z,2.08
2022-12-13T14:27:34.601Z,2.26
2022-12-13T14:30:47.942Z,2.41
2022-12-13T14:34:05.240Z,2.39
2022-12-13T14:37:23.776Z,1.84
2022-12-13T14:40:33.247Z,1.29
2022-12-13T14:43:39.094Z,0.91
2022-12-13T14:46:53.899Z,0.60
2022-12-13T14:49:59.846Z,0.33
2022-12-13T14:53:06.720Z,0.22
2022-12-13T14:56:27.316Z,0.61
2022-12-13T14:59:34.727Z,1.05
2022-12-13T15:02:53.565Z,1.34
2022-12-13T15:06:01.557Z,1.56
2022-12-13T15:09:11.305Z,1.74
2022-12-13T15:12:24.283Z,1.91
2022-12-13T15:15:34.024Z,2.04
2022-12-13T15:18:39.830Z,2.15
2022-12-13T15:22:01.691Z,2.23
2022-12-13T15:25:13.665Z,2.30
2022-12-13T15:28:21.855Z,2.36
2022-12-13T15:31:28.557Z,2.43
2022-12-13T15:34:37.334Z,2.50
2022-12-13T15:37:47.122Z,2.53
2022-12-13T15:40:52.952Z,2.56
2022-12-13T15:44:02.212Z,2.18
2022-12-13T15:47:12.984Z,1.53
2022-12-13T15:50:37.242Z,0.98
2022-12-13T15:54:01.149Z,0.58
2022-12-13T15:57:16.223Z,0.37
2022-12-13T16:00:31.306Z,0.74
2022-12-13T16:03:41.172Z,1.11
2022-12-13T16:06:52.953Z,1.30
2022-12-13T16:09:59.151Z,1.48
2022-12-13T16:13:08.073Z,1.61
2022-12-13T16:16:28.814Z,1.70
2022-12-13T16:19:34.514Z,1.77
2022-12-13T16:22:40.248Z,1.81
2022-12-13T16:25:45.965Z,1.85
2022-12-13T16:28:51.653Z,1.88
2022-12-13T16:32:01.394Z,1.89
2022-12-13T16:35:13.496Z,1.91
2022-12-13T16:38:26.657Z,1.94
2022-12-13T16:41:36.032Z,1.97
2022-12-13T16:44:42.330Z,2.00
2022-12-13T16:47:49.144Z,2.02
2022-12-13T16:50:57.838Z,2.01
2022-12-13T16:54:03.797Z,2.06
2022-12-13T16:57:10.477Z,2.08
2022-12-13T17:00:17.689Z,2.06
2022-12-13T17:03:23.740Z,2.03
2022-12-13T17:06:29.679Z,1.99
2022-12-13T17:09:36.775Z,1.96
2022-12-13T17:12:42.441Z,1.95
2022-12-13T17:15:48.071Z,1.92
2022-12-13T17:19:05.265Z,1.88
2022-12-13T17:22:10.942Z,1.86
2022-12-13T17:25:17.208Z,1.85
2022-12-13T17:28:21.426Z,1.85
2022-12-13T17:31:34.736Z,1.82
2022-12-13T17:34:41.229Z,1.83
2022-12-13T17:37:46.784Z,1.83
2022-12-13T17:40:56.589Z,1.83
2022-12-13T17:44:02.651Z,1.85
2022-12-13T17:47:08.340Z,1.85
2022-12-13T17:50:13.999Z,1.83
2022-12-13T17:53:19.645Z,1.82
2022-12-13T17:56:25.200Z,1.84
2022-12-13T17:59:30.733Z,1.85
2022-12-13T18:02:37.988Z,1.82
2022-12-13T18:05:43.786Z,1.78
2022-12-13T18:08:49.747Z,1.77
2022-12-13T18:11:55.399Z,1.77
2022-12-13T18:15:01.161Z,1.74
2022-12-13T18:18:11.666Z,1.71
2022-12-13T18:21:19.625Z,1.65
2022-12-13T18:24:25.396Z,1.61
2022-12-13T18:27:32.464Z,1.59
2022-12-13T18:30:39.108Z,1.60
2022-12-13T18:33:47.841Z,1.60
2022-12-13T18:36:53.741Z,1.56
2022-12-13T18:39:59.332Z,1.52
2022-12-13T18:43:05.024Z,1.55
2022-12-13T18:46:11.641Z,1.60
2022-12-13T18:49:17.263Z,1.65
2022-12-13T18:52:24.807Z,1.68
2022-12-13T18:55:30.861Z,1.69
2022-12-13T18:58:37.534Z,1.68
2022-12-13T19:01:43.276Z,1.69
2022-12-13T19:04:55.049Z,1.67
2022-12-13T19:08:01.284Z,1.59
2022-12-13T19:11:07.219Z,1.56
2022-12-13T19:14:12.834Z,1.54
2022-12-13T19:17:18.457Z,1.50
2022-12-13T19:20:24.257Z,1.49
2022-12-13T19:23:30.470Z,1.49
2022-12-13T19:26:34.694Z,1.47
2022-12-13T19:29:40.347Z,1.40
2022-12-13T19:32:48.236Z,1.39
2022-12-13T19:35:54.729Z,1.37
2022-12-13T19:38:58.838Z,1.36
2022-12-13T19:42:04.361Z,1.33
2022-12-13T19:45:10.795Z,1.34
2022-12-13T19:48:16.920Z,1.37
2022-12-13T19:51:22.723Z,1.42
2022-12-13T19:54:28.432Z,1.44
2022-12-13T19:57:36.145Z,1.44
2022-12-13T20:00:41.832Z,1.44
2022-12-13T20:03:48.418Z,1.44
2022-12-13T20:06:53.919Z,1.40
2022-12-13T20:09:59.553Z,1.37
2022-12-13T20:13:05.416Z,1.37
2022-12-13T20:16:17.799Z,1.35
2022-12-13T20:19:23.473Z,0.78
2022-12-13T20:22:29.125Z,0.09
2022-12-13T20:25:34.666Z,-0.43
2022-12-13T20:28:40.660Z,-0.84
2022-12-13T20:31:48.330Z,-1.06
2022-12-13T20:34:55.275Z,-0.81
2022-12-13T20:37:59.329Z,-0.56
2022-12-13T20:41:06.416Z,-0.41
2022-12-13T20:44:14.152Z,-0.25
2022-12-13T20:47:19.841Z,-0.14
2022-12-13T20:50:25.421Z,-0.03
2022-12-13T20:53:33.934Z,0.06
2022-12-13T20:56:40.835Z,0.12
2022-12-13T20:59:46.470Z,0.18
2022-12-13T21:02:52.013Z,0.23
2022-12-13T21:05:57.552Z,0.22
2022-12-13T21:09:04.202Z,0.22
2022-12-13T21:12:09.997Z,0.18
2022-12-13T21:15:15.751Z,-0.35
2022-12-13T21:18:21.403Z,-1.07
2022-12-13T21:21:28.592Z,-1.63
2022-12-13T21:24:34.072Z,-2.07
2022-12-13T21:27:40.305Z,-2.40
2022-12-13T21:30:44.272Z,-2.58
2022-12-13T21:33:52.165Z,-2.24
2022-12-13T21:36:57.770Z,-1.89
2022-12-13T21:40:03.423Z,-1.70
2022-12-13T21:43:09.070Z,-1.57
2022-12-13T21:46:16.470Z,-1.44
2022-12-13T21:49:21.983Z,-1.31
2022-12-13T21:52:27.732Z,-1.23
2022-12-13T21:55:41.188Z,-1.17
2022-12-13T21:59:04.879Z,-1.37
2022-12-13T22:02:19.245Z,-2.08
2022-12-13T22:05:25.073Z,-2.65
2022-12-13T22:08:30.747Z,-3.09
2022-12-13T22:11:36.304Z,-3.46
2022-12-13T22:14:41.944Z,-3.77
2022-12-13T22:17:47.594Z,-4.03
2022-12-13T22:20:59.490Z,-4.29
2022-12-13T22:24:05.350Z,-4.43
2022-12-13T22:27:11.105Z,-3.91
2022-12-13T22:30:17.065Z,-3.34
2022-12-13T22:33:22.605Z,-3.05
2022-12-13T22:36:28.273Z,-2.96
2022-12-13T22:39:34.020Z,-3.02
2022-12-13T22:42:39.569Z,-3.61
2022-12-13T22:45:45.263Z,-4.22
2022-12-13T22:48:52.408Z,-4.68
2022-12-13T22:51:57.958Z,-4.46
2022-12-13T22:55:03.926Z,-3.96
2022-12-13T22:58:09.669Z,-3.65
2022-12-13T23:01:17.235Z,-3.52
2022-12-13T23:04:23.124Z,-3.44
2022-12-13T23:07:28.818Z,-3.40
2022-12-13T23:10:52.136Z,-3.38
2022-12-13T23:13:59.842Z,-3.37
2022-12-13T23:17:05.771Z,-3.32
2022-12-13T23:20:13.348Z,-3.27
2022-12-13T23:23:19.154Z,-3.28
2022-12-13T23:26:26.501Z,-3.34
2022-12-13T23:29:32.402Z,-3.42
2022-12-13T23:32:38.057Z,-3.51
2022-12-13T23:35:43.604Z,-3.62
2022-12-13T23:38:49.643Z,-3.73
2022-12-13T23:41:55.221Z,-3.78
2022-12-13T23:45:00.970Z,-3.79
2022-12-13T23:48:07.405Z,-3.83
2022-12-13T23:51:15.439Z,-3.84
2022-12-13T23:54:20.995Z,-3.83
2022-12-13T23:57:26.647Z,-3.85
